• Join FlightAware (Why Join?)
  • Login
  • US Flag 
07:57AM EDT


 

Airport Tracker/Info


-or-


 

Live Flight TrackerFlight Track Log ✈ SWA2278 ✈ 20-Apr-2013 ✈ KJAX - KBWI

Flight Track Log - Related Links

Times and Time Zones

All times are in EDT time to prevent confusion due to time zone crossing. See the SWA2278 flight status page for this flight to view local times or setup timezone preferences in your user account.

Time Position Orientation Groundspeed Altitude Reporting Facility
EDT Latitude Longitude Course Direction KTS MPH feet Rate Location/Type
07:49AM 30.4928 -81.7089 323° Northwest 151 174 700  Level Jacksonville Center
07:49AM 30.5117 -81.7256 323° Northwest 150 173 2,200 1,920 Climbing Jacksonville Center
07:50AM 30.5722 -81.7150 North 244 281 3,900 1,680 Climbing Jacksonville Center
07:51AM 30.6181 -81.7050 11° North 291 335 4,900 2,760 Climbing Jacksonville Center
07:52AM 30.6758 -81.6439 42° Northeast 280 322 8,300 3,240 Climbing Jacksonville Center
07:53AM 30.7231 -81.5489 60° Northeast 280 322 11,400 3,180 Climbing Jacksonville Center
07:54AM 30.7783 -81.4489 57° Northeast 331 381 14,700 3,180 Climbing Jacksonville Center
07:55AM 30.8439 -81.3536 51° Northeast 356 410 17,800 2,760 Climbing Jacksonville Center
07:56AM 30.9564 -81.3397 North 350 403 20,300 2,400 Climbing Jacksonville Center
07:57AM 31.0692 -81.3258 North 366 421 22,700 2,220 Climbing Jacksonville Center
07:58AM 31.1922 -81.3139 North 430 495 24,800 2,040 Climbing Jacksonville Center
07:59AM 31.3172 -81.3022 North 443 510 26,800 1,080 Climbing Jacksonville Center
08:00AM 31.4444 -81.2831 North 459 528 27,000 60 Climbing Jacksonville Center
08:01AM 31.5592 -81.2736 North 459 528 27,000  Level Jacksonville Center
08:02AM 31.6992 -81.2956 352° North 459 528 27,000 660 Level Jacksonville Center
08:03AM 31.8247 -81.3156 352° North 459 528 28,400 1,500 Climbing Jacksonville Center
08:04AM 31.9419 -81.3281 355° North 468 539 30,100 1,800 Climbing Jacksonville Center
08:05AM 32.0556 -81.2331 35° Northeast 448 516 32,000 1,680 Climbing Jacksonville Center
08:06AM 32.1667 -81.1281 39° Northeast 469 540 33,500 1,740 Climbing Jacksonville Center
08:07AM 32.2903 -81.0075 39° Northeast 507 583 35,500 1,740 Climbing Jacksonville Center
08:08AM 32.3994 -80.9019 39° Northeast 518 596 37,000 1,200 Climbing Jacksonville Center
08:09AM 32.4981 -80.8039 40° Northeast 518 596 38,000 900 Climbing Jacksonville Center
08:10AM 32.6089 -80.6953 40° Northeast 518 596 38,900 480 Climbing Jacksonville Center
08:11AM 32.7217 -80.5839 40° Northeast 518 596 39,000  Climbing Jacksonville Center
08:12AM 32.8344 -80.4722 40° Northeast 518 596 39,000  Level Jacksonville Center
08:13AM 32.9592 -80.3475 40° Northeast 536 617 39,000  Level Jacksonville Center
08:14AM 33.0758 -80.2353 39° Northeast 539 620 39,000  Level Jacksonville Center
08:15AM 33.1883 -80.1225 40° Northeast 539 620 39,000  Level Jacksonville Center
08:16AM 33.2986 -80.0122 40° Northeast 528 608 39,000  Level Jacksonville Center
08:17AM 33.4067 -79.9019 40° Northeast 522 601 39,000  Level Jacksonville Center
08:18AM 33.5167 -79.7911 40° Northeast 516 594 39,000  Level Jacksonville Center
08:19AM 33.6286 -79.6797 40° Northeast 516 594 39,000  Level Jacksonville Center
08:20AM 33.7383 -79.5658 41° Northeast 516 594 39,000  Level Jacksonville Center
08:21AM 33.8500 -79.4542 40° Northeast 521 600 39,000  Level Jacksonville Center
08:22AM 33.9475 -79.3603 39° Northeast 516 594 39,000  Level Jacksonville Center
08:24AM 34.2661 -79.1803 25° Northeast 514 592 39,000  Level Washington Center
08:25AM 34.3956 -79.1081 25° Northeast 514 592 39,000  Level Washington Center
08:26AM 34.5269 -79.0381 24° Northeast 514 592 39,000 240 Level Washington Center
08:27AM 34.6583 -78.9628 25° Northeast 509 586 39,500 480 Climbing Washington Center
08:28AM 34.7900 -78.8872 25° Northeast 514 592 40,000 240 Climbing Washington Center
08:29AM 34.9211 -78.8167 24° Northeast 509 586 40,000  Level Washington Center
08:30AM 35.0506 -78.7431 25° Northeast 509 586 40,000  Level Washington Center
08:31AM 35.1839 -78.6722 23° Northeast 509 586 40,000  Level Washington Center
08:32AM 35.3108 -78.5981 25° Northeast 509 586 40,000  Level Washington Center
08:33AM 35.4525 -78.5242 23° Northeast 533 613 40,000  Level Washington Center
08:34AM 35.5689 -78.4544 26° Northeast 523 602 40,000  Level Washington Center
08:35AM 35.7022 -78.3750 26° Northeast 523 602 40,000 -420 Level Washington Center
08:36AM 35.8356 -78.3003 24° Northeast 518 596 39,200 -1,620 Descending Washington Center
08:37AM 35.9664 -78.2250 25° Northeast 518 596 36,800 -2,520 Descending Washington Center
08:38AM 36.1017 -78.1472 25° Northeast 518 596 34,200 -2,340 Descending Washington Center
08:39AM 36.2347 -78.0692 25° Northeast 518 596 32,200 -2,040 Descending Washington Center
08:40AM 36.3636 -77.9933 25° Northeast 513 590 30,200 -1,620 Descending Washington Center
08:41AM 36.4881 -77.9222 25° Northeast 502 578 29,000 -1,020 Descending Washington Center
08:42AM 36.6189 -77.8458 25° Northeast 502 578 28,200 -720 Descending Washington Center
08:43AM 36.7475 -77.7692 26° Northeast 502 578 27,600 -840 Descending Washington Center
08:44AM 36.8761 -77.6925 25° Northeast 507 583 26,600 -1,020 Descending Washington Center
08:45AM 37.0067 -77.6283 21° North 507 583 25,600 -1,020 Descending Washington Center
08:46AM 37.1408 -77.5825 15° North 495 570 24,600 -1,020 Descending Washington Center
08:47AM 37.2711 -77.5361 16° North 484 557 23,600 -840 Descending Washington Center
08:48AM 37.3947 -77.4950 15° North 470 541 23,000 -300 Descending Washington Center
08:49AM 37.5186 -77.4483 17° North 464 534 23,000  Level Washington Center
08:50AM 37.6464 -77.4042 15° North 464 534 23,000  Level Washington Center
08:51AM 37.7722 -77.3572 16° North 464 534 23,000  Level Washington Center
08:52AM 37.8981 -77.3128 16° North 464 534 23,000 -360 Level Washington Center
08:53AM 38.0261 -77.2656 16° North 464 534 22,300 -1,620 Descending Washington Center
08:54AM 38.1642 -77.2211 14° North 464 534 19,800 -2,880 Descending Washington Center
08:55AM 38.2858 -77.1761 16° North 459 528 16,600 -2,700 Descending Washington Center
08:56AM 38.4050 -77.1522 North 439 505 14,400 -1,740 Descending Washington Center
08:57AM 38.5092 -77.1544 359° North 404 465 13,200 -1,260 Descending Washington Center
08:58AM 38.5894 -77.0792 36° Northeast 350 403 11,900 -1,320 Descending Washington Center
08:59AM 38.6333 -76.9667 63° Northeast 405 466 10,800 -960 Descending Potomac TRACON
09:00AM 38.6667 -76.8333 72° East 367 422 10,100 -900 Descending Potomac TRACON
09:01AM 38.7167 -76.7333 57° Northeast 333 383 9,000 -1,260 Descending Potomac TRACON
09:02AM 38.7500 -76.6333 67° East 310 357 7,600 -1,380 Descending Potomac TRACON
09:03AM 38.8000 -76.5500 52° Northeast 295 339 6,400 -960 Descending Potomac TRACON
09:04AM 38.8500 -76.5333 15° North 237 273 5,800 -900 Descending Potomac TRACON
09:05AM 38.9167 -76.5500 349° North 231 266 4,600 -1,080 Descending Potomac TRACON
09:06AM 38.9667 -76.5667 345° North 218 251 3,800 -720 Descending Potomac TRACON
09:07AM 39.0333 -76.5833 349° North 186 214 3,300 -600 Descending Potomac TRACON
09:08AM 39.0667 -76.6000 339° North 143 165 2,600 -840 Descending Potomac TRACON
09:09AM 39.1000 -76.6167 339° North 131 151 1,700 -840 Descending Potomac TRACON
09:10AM 39.1333 -76.6333 339° North 129 148 1,000 -780 Descending Potomac TRACON
09:12AM 39.1667 -76.6667 339° North  Level FlightAware Approximate
09:19AM 39.1754 -76.6683 339° North  Level Estimated
09:20AM 39.1754 -76.6683 339° North  Level Estimated
09:21AM 39.1754 -76.6683 339° North  Level Estimated